createdAt,value
2018-10-16T00:01:08.950Z,12.80
2018-10-16T00:06:13.800Z,16.60
2018-10-16T00:11:17.482Z,16.50
2018-10-16T00:16:21.819Z,14.13
2018-10-16T00:21:25.795Z,16.60
2018-10-16T00:26:30.295Z,14.83
2018-10-16T00:31:33.935Z,13.23
2018-10-16T00:36:38.613Z,13.47
2018-10-16T00:41:42.700Z,14.33
2018-10-16T00:46:46.324Z,17.90
2018-10-16T00:51:49.930Z,13.00
2018-10-16T00:56:53.981Z,16.03
2018-10-16T01:01:57.587Z,15.20
2018-10-16T01:07:01.164Z,17.10
2018-10-16T01:12:05.319Z,14.77
2018-10-16T01:17:09.181Z,15.80
2018-10-16T01:22:12.763Z,13.23
2018-10-16T01:27:16.744Z,15.17
2018-10-16T01:32:21.301Z,15.33
2018-10-16T01:37:26.417Z,16.93
2018-10-16T01:42:30.420Z,17.40
2018-10-16T01:47:34.028Z,15.60
2018-10-16T01:52:38.366Z,16.17
2018-10-16T01:57:41.964Z,14.57
2018-10-16T02:02:46.457Z,13.10
2018-10-16T02:07:49.937Z,14.67
2018-10-16T02:12:53.512Z,14.77
2018-10-16T02:17:57.148Z,13.70
2018-10-16T02:23:01.439Z,19.00
2018-10-16T02:28:05.530Z,14.40
2018-10-16T02:33:09.129Z,15.10
2018-10-16T02:38:13.313Z,16.73
2018-10-16T02:43:16.948Z,16.37
2018-10-16T02:48:20.521Z,19.90
2018-10-16T02:53:26.428Z,15.03
2018-10-16T02:58:29.996Z,13.80
2018-10-16T03:03:35.807Z,14.53
2018-10-16T03:08:39.400Z,17.77
2018-10-16T03:13:42.980Z,19.63
2018-10-16T03:18:46.892Z,15.97
2018-10-16T03:23:50.471Z,16.50
2018-10-16T03:28:54.687Z,16.07
2018-10-16T03:33:58.302Z,14.70
2018-10-16T03:39:04.601Z,17.63
2018-10-16T03:44:10.682Z,15.37
2018-10-16T03:49:14.282Z,17.27
2018-10-16T03:54:18.098Z,18.60
2018-10-16T03:59:21.686Z,17.33
2018-10-16T04:04:25.328Z,13.77
2018-10-16T04:09:28.896Z,20.40
2018-10-16T04:14:32.545Z,14.87
2018-10-16T04:19:36.145Z,17.60
2018-10-16T04:24:40.488Z,13.90
2018-10-16T04:29:44.599Z,14.23
2018-10-16T04:34:48.679Z,16.03
2018-10-16T04:39:52.335Z,20.70
2018-10-16T04:44:56.190Z,17.13
2018-10-16T04:50:00.404Z,20.80
2018-10-16T04:55:04.464Z,18.90
2018-10-16T05:00:08.972Z,17.70
2018-10-16T05:05:18.549Z,20.77
2018-10-16T05:10:22.517Z,16.80
2018-10-16T05:15:34.869Z,15.13
2018-10-16T05:20:38.456Z,15.70
2018-10-16T05:25:42.026Z,18.43
2018-10-16T05:30:45.679Z,18.13
2018-10-16T05:35:49.274Z,14.70
2018-10-16T05:40:53.233Z,15.93
2018-10-16T05:45:56.840Z,14.60
2018-10-16T05:51:00.433Z,17.37
2018-10-16T05:56:06.576Z,19.37
2018-10-16T06:01:10.199Z,18.10
2018-10-16T06:06:13.970Z,17.37
2018-10-16T06:11:17.559Z,19.60
2018-10-16T06:16:21.115Z,18.20
2018-10-16T06:21:25.000Z,20.33
2018-10-16T06:26:28.679Z,18.87
2018-10-16T06:31:32.264Z,18.00
2018-10-16T06:36:35.934Z,17.73
2018-10-16T06:41:39.594Z,15.30
2018-10-16T06:46:43.440Z,16.07
2018-10-16T06:51:46.935Z,18.10
2018-10-16T06:56:50.538Z,17.93
2018-10-16T07:01:54.132Z,18.63
2018-10-16T07:06:58.026Z,16.90
2018-10-16T07:12:01.492Z,18.77
2018-10-16T07:17:06.177Z,25.97
2018-10-16T07:22:12.512Z,25.73
2018-10-16T07:27:17.121Z,22.20
2018-10-16T07:32:21.485Z,20.47
2018-10-16T07:37:26.166Z,19.47
2018-10-16T07:42:29.772Z,22.07
2018-10-16T07:47:33.481Z,20.50
2018-10-16T07:52:37.420Z,22.50
2018-10-16T07:57:41.894Z,18.77
2018-10-16T08:02:46.232Z,19.13
2018-10-16T08:07:49.787Z,21.80
2018-10-16T08:12:54.061Z,24.27
2018-10-16T08:17:57.709Z,23.47
2018-10-16T08:23:01.316Z,29.47
2018-10-16T08:28:05.017Z,24.80
2018-10-16T08:33:08.639Z,31.43
2018-10-16T08:40:20.525Z,23.00
2018-10-16T08:45:35.281Z,21.73
2018-10-16T08:50:50.669Z,22.73
2018-10-16T08:55:54.541Z,22.50
2018-10-16T09:00:58.112Z,20.77
2018-10-16T09:06:01.701Z,17.07
2018-10-16T09:11:05.334Z,20.03
2018-10-16T09:16:09.360Z,18.90
2018-10-16T09:21:13.043Z,19.63
2018-10-16T09:26:19.654Z,19.77
2018-10-16T09:31:24.248Z,14.17
2018-10-16T09:36:28.627Z,14.80
2018-10-16T09:41:32.228Z,15.93
2018-10-16T09:46:35.924Z,17.30
2018-10-16T09:51:41.410Z,16.60
2018-10-16T09:56:45.047Z,16.00
2018-10-16T10:01:52.841Z,17.70
2018-10-16T10:06:56.687Z,19.53
2018-10-16T10:12:00.280Z,17.60
2018-10-16T10:17:03.924Z,16.63
2018-10-16T10:22:07.559Z,15.77
2018-10-16T10:27:12.106Z,17.97
2018-10-16T10:32:15.672Z,20.83
2018-10-16T10:37:19.245Z,17.60
2018-10-16T10:42:23.681Z,16.47
2018-10-16T10:47:27.535Z,19.43
2018-10-16T10:52:31.198Z,16.80
2018-10-16T10:57:35.280Z,14.03
2018-10-16T11:02:39.803Z,17.97
2018-10-16T11:07:49.090Z,15.80
2018-10-16T11:12:52.712Z,17.00
2018-10-16T11:17:56.406Z,15.27
2018-10-16T11:23:00.356Z,15.30
2018-10-16T11:28:04.230Z,13.73
2018-10-16T11:33:07.864Z,12.90
2018-10-16T11:38:11.775Z,13.80
2018-10-16T11:43:15.652Z,13.90
2018-10-16T11:48:19.780Z,12.53
2018-10-16T11:53:23.363Z,15.30
2018-10-16T11:58:26.912Z,12.90
2018-10-16T12:03:30.503Z,15.30
2018-10-16T12:08:34.348Z,16.27
2018-10-16T12:13:37.945Z,13.90
2018-10-16T12:19:16.719Z,14.17
2018-10-16T12:24:20.275Z,12.17
2018-10-16T12:29:23.861Z,15.30
2018-10-16T12:34:27.988Z,12.63
2018-10-16T12:39:31.603Z,14.23
2018-10-16T12:44:35.161Z,14.00
2018-10-16T12:49:38.984Z,14.27
2018-10-16T12:54:44.329Z,12.60
2018-10-16T12:59:47.896Z,11.30
2018-10-16T13:04:51.229Z,15.63
2018-10-16T13:15:06.900Z,14.67
2018-10-16T13:20:11.556Z,16.80
2018-10-16T13:25:15.773Z,12.23
2018-10-16T13:30:19.695Z,13.37
2018-10-16T13:35:23.571Z,13.00
2018-10-16T13:40:28.134Z,11.57
2018-10-16T13:50:40.900Z,11.47
2018-10-16T13:55:45.318Z,12.03
2018-10-16T14:00:49.173Z,13.20
2018-10-16T14:05:53.091Z,13.60
2018-10-16T14:10:56.992Z,14.03
2018-10-16T14:16:01.472Z,10.67
2018-10-16T14:21:05.560Z,13.00
2018-10-16T14:26:11.307Z,11.50
2018-10-16T14:31:15.272Z,16.00
2018-10-16T14:36:18.914Z,11.10
2018-10-16T14:41:22.547Z,12.13
2018-10-16T14:46:26.074Z,13.53
2018-10-16T14:51:33.289Z,11.70
2018-10-16T14:56:36.887Z,12.70
2018-10-16T15:01:40.993Z,11.40
2018-10-16T15:06:44.698Z,11.40
2018-10-16T15:11:49.165Z,11.10
2018-10-16T15:16:52.796Z,14.23
2018-10-16T15:21:56.539Z,9.63
2018-10-16T15:27:04.160Z,11.30
2018-10-16T15:32:07.838Z,9.20
2018-10-16T15:37:11.436Z,11.63
2018-10-16T15:42:15.070Z,11.57
2018-10-16T15:47:18.938Z,13.80
2018-10-16T15:52:22.496Z,14.63
2018-10-16T15:57:26.599Z,11.97
2018-10-16T16:02:30.997Z,11.37
2018-10-16T16:07:34.966Z,15.23
2018-10-16T16:12:38.772Z,11.40
2018-10-16T16:17:43.251Z,11.30
2018-10-16T16:22:48.029Z,11.93
2018-10-16T16:27:53.330Z,14.23
2018-10-16T16:32:57.296Z,14.57
2018-10-16T16:38:01.287Z,13.30
2018-10-16T16:43:05.022Z,18.33
2018-10-16T16:48:10.717Z,14.57
2018-10-16T16:53:14.398Z,15.57
2018-10-16T16:58:18.642Z,13.13
2018-10-16T17:03:22.638Z,11.77
2018-10-16T17:08:26.258Z,13.73
2018-10-16T17:13:30.016Z,16.40
2018-10-16T17:18:33.701Z,17.70
2018-10-16T17:23:38.779Z,16.27
2018-10-16T17:28:42.451Z,15.23
2018-10-16T17:33:46.369Z,16.83
2018-10-16T17:38:49.946Z,14.27
2018-10-16T17:43:53.783Z,14.33
2018-10-16T17:48:57.435Z,15.63
2018-10-16T17:54:01.256Z,17.63
2018-10-16T17:59:04.882Z,24.00
2018-10-16T18:04:08.499Z,14.50
2018-10-16T18:09:12.214Z,15.53
2018-10-16T18:14:15.920Z,16.23
2018-10-16T18:19:20.216Z,17.70
2018-10-16T18:24:24.069Z,14.33
2018-10-16T18:29:28.100Z,15.87
2018-10-16T18:34:33.538Z,14.00
2018-10-16T18:39:37.175Z,17.20
2018-10-16T18:44:41.205Z,15.50
2018-10-16T18:49:44.788Z,17.97
2018-10-16T18:54:48.484Z,16.10
2018-10-16T18:59:52.086Z,17.33
2018-10-16T19:04:55.652Z,16.17
2018-10-16T19:09:59.900Z,19.03
2018-10-16T19:15:04.306Z,15.80
2018-10-16T19:20:09.418Z,16.53
2018-10-16T19:25:14.476Z,17.40
2018-10-16T19:30:18.553Z,19.33
2018-10-16T19:35:23.000Z,17.43
2018-10-16T19:40:26.780Z,20.20
2018-10-16T19:45:30.417Z,20.77
2018-10-16T19:50:34.051Z,20.40
2018-10-16T19:55:37.816Z,20.40
2018-10-16T20:00:41.428Z,19.70
2018-10-16T20:05:46.137Z,17.40
2018-10-16T20:10:49.842Z,14.97
2018-10-16T20:15:53.654Z,16.80
2018-10-16T20:20:57.424Z,21.73
2018-10-16T20:26:01.288Z,18.00
2018-10-16T20:31:05.289Z,19.10
2018-10-16T20:36:08.999Z,18.27
2018-10-16T20:41:14.172Z,19.77
2018-10-16T20:46:17.791Z,16.43
2018-10-16T20:51:21.363Z,18.03
2018-10-16T20:56:24.975Z,20.03
2018-10-16T21:01:31.891Z,20.57
2018-10-16T21:06:36.403Z,22.63
2018-10-16T21:11:39.907Z,23.93
2018-10-16T21:16:44.726Z,17.80
2018-10-16T21:21:51.554Z,17.70
2018-10-16T21:27:09.057Z,17.57
2018-10-16T21:32:12.698Z,17.37
2018-10-16T21:37:16.893Z,14.97
2018-10-16T21:42:21.432Z,18.70
2018-10-16T21:47:25.007Z,17.80
2018-10-16T21:52:28.718Z,19.13
2018-10-16T21:57:32.576Z,17.23
2018-10-16T22:02:41.816Z,21.60
2018-10-16T22:07:45.430Z,15.93
2018-10-16T22:12:49.651Z,15.77
2018-10-16T22:17:53.271Z,16.10
2018-10-16T22:22:57.218Z,16.27
2018-10-16T22:28:00.868Z,19.60
2018-10-16T22:33:04.799Z,16.37
2018-10-16T22:38:09.158Z,21.17
2018-10-16T22:43:17.595Z,18.10
2018-10-16T22:48:21.162Z,16.70
2018-10-16T22:53:24.725Z,18.53
2018-10-16T22:58:29.028Z,16.47
2018-10-16T23:03:32.598Z,18.80
2018-10-16T23:08:36.155Z,17.33
2018-10-16T23:13:39.708Z,18.83
2018-10-16T23:18:43.554Z,16.07
2018-10-16T23:23:47.170Z,17.00
2018-10-16T23:28:50.989Z,16.10
2018-10-16T23:33:55.200Z,16.60
2018-10-16T23:38:58.823Z,16.93
2018-10-16T23:44:02.409Z,14.10
2018-10-16T23:49:06.743Z,16.43
2018-10-16T23:54:10.604Z,17.70
2018-10-16T23:59:14.233Z,17.13
